Time;durP1;ratioP1;P1;durP2;ratioP2;P2;SDS_P1;SDS_P2;PMS_P1;PMS_P2;Temp;Humidity;BMP_temperature;BMP_pressure;BME280_temperature;BME280_humidity;BME280_pressure;Samples;Min_cycle;Max_cycle;Signal;HPM_P1;HPM_P2
2020/12/09 00:02:09;;;;;;;29.63;21.80;;;5.70;99.90;;;;;;5050966;28;20249;-64
2020/12/09 00:04:35;;;;;;;29.93;21.87;;;5.60;99.90;;;;;;5051050;28;20296;-64
2020/12/09 00:07:02;;;;;;;32.43;22.50;;;5.60;99.90;;;;;;5051088;28;20210;-64
2020/12/09 00:09:28;;;;;;;34.27;21.60;;;5.60;99.90;;;;;;5050861;28;20225;-64
2020/12/09 00:11:55;;;;;;;29.33;21.87;;;5.60;99.90;;;;;;5050881;28;20212;-64
2020/12/09 00:14:22;;;;;;;32.97;22.37;;;5.60;99.90;;;;;;5051074;28;20638;-64
2020/12/09 00:16:50;;;;;;;31.13;20.80;;;5.60;99.90;;;;;;5051334;28;20232;-64
2020/12/09 00:19:16;;;;;;;31.10;21.07;;;5.60;99.90;;;;;;5050680;28;20225;-65
2020/12/09 00:21:42;;;;;;;29.97;20.93;;;5.50;99.90;;;;;;5050552;28;20226;-67
2020/12/09 00:24:08;;;;;;;30.87;20.60;;;5.50;99.90;;;;;;5050763;28;20201;-65
2020/12/09 00:26:35;;;;;;;31.53;21.30;;;5.60;99.90;;;;;;5050987;28;20674;-66
2020/12/09 00:29:02;;;;;;;31.43;22.27;;;5.60;99.90;;;;;;5050366;28;20233;-67
2020/12/09 00:31:30;;;;;;;32.43;22.27;;;5.70;99.90;;;;;;5051090;28;20224;-63
2020/12/09 00:33:59;;;;;;;30.87;20.77;;;5.70;99.90;;;;;;5051119;28;20216;-65
2020/12/09 00:36:25;;;;;;;29.33;21.70;;;5.70;99.90;;;;;;5051095;28;20209;-65
2020/12/09 00:38:53;;;;;;;31.97;21.17;;;5.80;99.90;;;;;;5050613;28;20665;-65
2020/12/09 00:41:20;;;;;;;29.17;21.33;;;5.70;99.90;;;;;;5050770;28;20210;-64
2020/12/09 00:43:47;;;;;;;31.60;21.83;;;5.70;99.90;;;;;;5050606;28;20263;-64
2020/12/09 00:46:15;;;;;;;31.93;21.47;;;5.70;99.90;;;;;;5051137;28;20209;-65
2020/12/09 00:48:41;;;;;;;33.73;21.67;;;5.70;99.90;;;;;;5050539;28;20272;-65
2020/12/09 00:51:12;;;;;;;31.13;21.70;;;5.70;99.90;;;;;;5050813;28;20213;-64
2020/12/09 00:53:39;;;;;;;32.37;22.17;;;5.70;99.90;;;;;;5050281;28;20206;-65
2020/12/09 00:56:07;;;;;;;32.47;21.43;;;5.70;99.90;;;;;;5050816;28;20232;-64
2020/12/09 00:58:33;;;;;;;30.33;21.63;;;5.80;99.90;;;;;;5050170;28;20233;-65
2020/12/09 01:00:59;;;;;;;34.13;21.80;;;5.80;99.90;;;;;;5050378;28;20213;-64
2020/12/09 01:03:25;;;;;;;30.30;21.17;;;5.80;99.90;;;;;;5050665;28;20607;-65
2020/12/09 01:05:52;;;;;;;29.90;21.63;;;5.80;99.90;;;;;;5050702;28;20206;-64
2020/12/09 01:08:19;;;;;;;31.57;21.67;;;5.80;99.90;;;;;;5049954;28;20229;-65
2020/12/09 01:10:45;;;;;;;30.93;21.97;;;5.80;99.90;;;;;;5050698;28;20216;-65
2020/12/09 01:13:11;;;;;;;32.30;21.50;;;5.80;99.90;;;;;;5050671;28;20289;-65
2020/12/09 01:15:37;;;;;;;31.37;21.93;;;5.70;99.90;;;;;;5050411;28;20212;-65
2020/12/09 01:18:04;;;;;;;32.13;21.63;;;5.70;99.90;;;;;;5050223;28;20226;-65
2020/12/09 01:20:30;;;;;;;32.83;21.43;;;5.70;99.90;;;;;;5050446;28;20205;-64
2020/12/09 01:22:56;;;;;;;31.87;21.30;;;5.80;99.90;;;;;;5050946;28;20218;-64
2020/12/09 01:25:23;;;;;;;33.20;22.50;;;5.70;99.90;;;;;;5050860;28;20206;-64
2020/12/09 01:27:50;;;;;;;33.33;22.17;;;5.60;99.90;;;;;;5051624;28;20241;-65
2020/12/09 01:30:16;;;;;;;29.97;21.60;;;5.60;99.90;;;;;;5051595;28;20214;-66
2020/12/09 01:32:42;;;;;;;31.33;22.77;;;5.60;99.90;;;;;;5051427;28;20603;-65
2020/12/09 01:35:09;;;;;;;31.00;22.37;;;5.60;99.90;;;;;;5054438;28;20206;-64
2020/12/09 01:37:35;;;;;;;34.73;22.37;;;5.60;99.90;;;;;;5059611;28;20209;-65
2020/12/09 01:40:01;;;;;;;32.10;22.57;;;5.50;99.90;;;;;;5065154;28;20201;-63
2020/12/09 01:42:28;;;;;;;32.77;22.03;;;5.50;99.90;;;;;;5064532;28;20283;-64
2020/12/09 01:44:54;;;;;;;32.53;22.20;;;5.50;99.90;;;;;;5066026;28;20690;-65
2020/12/09 01:47:20;;;;;;;31.87;21.83;;;5.60;99.90;;;;;;5066011;28;20213;-65
2020/12/09 01:49:47;;;;;;;30.50;21.90;;;5.60;99.90;;;;;;5063932;28;20213;-65
2020/12/09 01:52:15;;;;;;;32.30;22.33;;;5.60;99.90;;;;;;5056993;28;20198;-65
2020/12/09 01:54:41;;;;;;;31.80;22.37;;;5.60;99.90;;;;;;5056841;28;20201;-63
2020/12/09 01:57:09;;;;;;;30.73;21.70;;;5.60;99.90;;;;;;5057354;28;20205;-64
2020/12/09 01:59:38;;;;;;;31.20;22.30;;;5.60;99.90;;;;;;5055457;28;20237;-64
2020/12/09 02:02:05;;;;;;;34.13;23.63;;;5.70;99.90;;;;;;5054654;28;20232;-65
2020/12/09 02:04:31;;;;;;;35.50;23.23;;;5.70;99.90;;;;;;5053746;28;20202;-65
2020/12/09 02:06:58;;;;;;;35.23;23.87;;;5.60;99.90;;;;;;5054805;28;20214;-64
2020/12/09 02:09:25;;;;;;;37.53;24.33;;;5.60;99.90;;;;;;5065935;28;20397;-63
2020/12/09 02:11:51;;;;;;;36.83;24.47;;;5.60;99.90;;;;;;5070104;28;20201;-64
2020/12/09 02:14:18;;;;;;;33.13;23.07;;;5.60;99.90;;;;;;5069392;28;20202;-64
2020/12/09 02:16:49;;;;;;;32.77;22.30;;;5.60;99.90;;;;;;5058295;28;20270;-64
2020/12/09 02:19:15;;;;;;;33.07;23.30;;;5.60;99.90;;;;;;5053712;28;20379;-64
2020/12/09 02:21:42;;;;;;;33.33;23.60;;;5.50;99.90;;;;;;5062680;28;20626;-63
2020/12/09 02:24:08;;;;;;;35.73;23.47;;;5.50;99.90;;;;;;5068547;28;20216;-64
2020/12/09 02:26:34;;;;;;;34.10;23.73;;;5.50;99.90;;;;;;5069402;28;20206;-63
2020/12/09 02:29:01;;;;;;;36.90;24.17;;;5.50;99.90;;;;;;5069656;28;20252;-64
2020/12/09 02:31:27;;;;;;;33.80;23.90;;;5.50;99.90;;;;;;5065151;28;20225;-64
2020/12/09 02:33:54;;;;;;;35.43;23.47;;;5.50;99.90;;;;;;5052738;28;20205;-64
2020/12/09 02:36:21;;;;;;;37.67;23.97;;;5.60;99.90;;;;;;5053449;28;20304;-64
2020/12/09 02:38:48;;;;;;;35.13;23.90;;;5.60;99.90;;;;;;5052609;28;20236;-65
2020/12/09 02:41:14;;;;;;;34.33;22.90;;;5.60;99.90;;;;;;5053161;28;20569;-65
2020/12/09 02:43:40;;;;;;;32.97;23.33;;;5.60;99.90;;;;;;5052130;28;20236;-65
2020/12/09 02:46:06;;;;;;;30.93;21.97;;;5.60;99.90;;;;;;5052613;28;20208;-65
2020/12/09 02:48:32;;;;;;;35.50;24.30;;;5.60;99.90;;;;;;5052566;28;20229;-64
2020/12/09 02:50:58;;;;;;;34.13;23.80;;;5.50;99.90;;;;;;5051792;28;20213;-64
2020/12/09 02:53:25;;;;;;;33.03;23.53;;;5.50;99.90;;;;;;5052304;28;20255;-64
2020/12/09 02:55:52;;;;;;;33.20;23.17;;;5.60;99.90;;;;;;5052497;28;20210;-64
2020/12/09 02:58:18;;;;;;;35.63;23.83;;;5.60;99.90;;;;;;5052432;28;20237;-64
2020/12/09 03:00:44;;;;;;;36.07;23.87;;;5.70;99.90;;;;;;5052289;28;20202;-64
2020/12/09 03:03:10;;;;;;;32.27;22.87;;;5.70;99.90;;;;;;5052353;28;20221;-64
2020/12/09 03:05:37;;;;;;;33.17;22.70;;;5.70;99.90;;;;;;5052259;28;20212;-64
2020/12/09 03:08:03;;;;;;;35.33;23.30;;;5.80;99.90;;;;;;5052049;28;20233;-64
2020/12/09 03:10:29;;;;;;;40.17;25.00;;;5.80;99.90;;;;;;5052093;28;20692;-64
2020/12/09 03:12:57;;;;;;;34.73;23.17;;;5.80;99.90;;;;;;5052007;28;20201;-65
2020/12/09 03:15:24;;;;;;;35.10;21.73;;;5.90;99.90;;;;;;5051400;28;20217;-65
2020/12/09 03:17:50;;;;;;;35.70;23.80;;;5.80;99.90;;;;;;5051806;28;20252;-64
2020/12/09 03:20:17;;;;;;;33.73;22.80;;;5.80;99.90;;;;;;5052226;28;20419;-64
2020/12/09 03:22:43;;;;;;;34.87;22.30;;;5.80;99.90;;;;;;5051856;28;20226;-64
2020/12/09 03:25:09;;;;;;;34.30;23.43;;;5.80;99.90;;;;;;5051689;28;20217;-64
2020/12/09 03:27:35;;;;;;;32.97;21.70;;;5.80;99.90;;;;;;5051419;28;20206;-64
2020/12/09 03:30:03;;;;;;;34.33;23.53;;;5.80;99.90;;;;;;5051613;28;20229;-64
2020/12/09 03:32:30;;;;;;;33.67;22.63;;;5.80;99.90;;;;;;5052066;28;20278;-65
2020/12/09 03:34:56;;;;;;;32.97;22.67;;;5.70;99.90;;;;;;5051538;28;20255;-64
2020/12/09 03:37:22;;;;;;;33.60;22.93;;;5.70;99.90;;;;;;5051700;28;20205;-64
2020/12/09 03:39:48;;;;;;;34.87;23.17;;;5.70;99.90;;;;;;5051197;28;20209;-65
2020/12/09 03:42:14;;;;;;;40.20;26.57;;;5.60;99.90;;;;;;5051941;28;20221;-64
2020/12/09 03:44:40;;;;;;;35.83;24.47;;;5.60;99.90;;;;;;5051145;28;20216;-64
2020/12/09 03:47:07;;;;;;;35.23;23.27;;;5.60;99.90;;;;;;5052062;28;20206;-65
2020/12/09 03:49:34;;;;;;;35.63;24.03;;;5.70;99.90;;;;;;5051254;28;20647;-64
2020/12/09 03:52:00;;;;;;;37.13;23.67;;;5.60;99.90;;;;;;5051479;28;20198;-64
2020/12/09 03:54:26;;;;;;;35.30;24.53;;;5.60;99.90;;;;;;5051226;28;20208;-65
2020/12/09 03:56:52;;;;;;;36.93;23.30;;;5.60;99.90;;;;;;5051185;28;20205;-65
2020/12/09 03:59:18;;;;;;;33.70;23.13;;;5.70;99.90;;;;;;5050767;28;20237;-65
2020/12/09 04:01:44;;;;;;;37.07;23.70;;;5.70;99.90;;;;;;5051094;28;20255;-65
2020/12/09 04:04:12;;;;;;;32.30;22.70;;;5.70;99.90;;;;;;5050969;28;20202;-64
2020/12/09 04:06:38;;;;;;;33.20;23.23;;;5.70;99.90;;;;;;5051568;28;20590;-64
2020/12/09 04:09:05;;;;;;;34.27;22.37;;;5.70;99.90;;;;;;5050810;28;20724;-65
2020/12/09 04:11:31;;;;;;;32.77;22.87;;;5.70;99.90;;;;;;5051197;28;20205;-65
2020/12/09 04:13:57;;;;;;;34.30;23.00;;;5.70;99.90;;;;;;5050895;28;20222;-63
2020/12/09 04:16:24;;;;;;;34.10;23.33;;;5.80;99.90;;;;;;5051422;28;20202;-64
2020/12/09 04:18:50;;;;;;;34.07;23.63;;;5.80;99.90;;;;;;5050837;28;20221;-64
2020/12/09 04:21:17;;;;;;;31.97;23.07;;;5.80;99.90;;;;;;5051132;28;20232;-63
2020/12/09 04:23:43;;;;;;;34.33;22.63;;;5.80;99.90;;;;;;5050574;28;20705;-64
2020/12/09 04:26:09;;;;;;;33.33;23.00;;;5.80;99.90;;;;;;5050733;28;20634;-64
2020/12/09 04:28:35;;;;;;;34.13;23.93;;;5.80;99.90;;;;;;5050774;28;20225;-64
2020/12/09 04:31:01;;;;;;;31.03;22.10;;;5.70;99.90;;;;;;5050878;28;20255;-64
2020/12/09 04:33:28;;;;;;;32.87;22.27;;;5.70;99.90;;;;;;5050923;28;20212;-65
2020/12/09 04:35:55;;;;;;;35.10;23.77;;;5.70;99.90;;;;;;5051056;28;20221;-64
2020/12/09 04:38:23;;;;;;;34.80;23.67;;;5.70;99.90;;;;;;5050805;28;20230;-64
2020/12/09 04:40:49;;;;;;;33.93;22.87;;;5.70;99.90;;;;;;5050930;28;20212;-64
2020/12/09 04:43:15;;;;;;;33.80;23.80;;;5.60;99.90;;;;;;5051113;28;20588;-64
2020/12/09 04:45:42;;;;;;;36.00;22.67;;;5.60;99.90;;;;;;5050357;28;20743;-64
2020/12/09 04:48:10;;;;;;;34.33;23.87;;;5.70;99.90;;;;;;5050283;28;20705;-64
2020/12/09 04:50:58;;;;;;;34.97;24.07;;;5.60;99.90;;;;;;5050897;28;20216;-64
2020/12/09 04:53:27;;;;;;;34.03;22.77;;;5.60;99.90;;;;;;5050445;28;20205;-64
2020/12/09 04:55:54;;;;;;;34.07;22.90;;;5.60;99.90;;;;;;5050940;28;20205;-65
2020/12/09 04:58:38;;;;;;;32.10;22.43;;;5.60;99.90;;;;;;5050266;28;20237;-63
2020/12/09 05:01:06;;;;;;;32.70;22.83;;;5.60;99.90;;;;;;5050788;28;20210;-64
2020/12/09 05:03:41;;;;;;;33.73;22.93;;;5.60;99.90;;;;;;5050138;28;20225;-64
2020/12/09 05:06:07;;;;;;;36.43;23.30;;;5.60;99.90;;;;;;5050832;28;20628;-64
2020/12/09 05:08:36;;;;;;;35.93;24.17;;;5.60;99.90;;;;;;5050203;28;20831;-63
2020/12/09 05:11:07;;;;;;;34.57;22.77;;;5.60;99.90;;;;;;5050751;28;20241;-64
2020/12/09 05:13:35;;;;;;;36.87;23.83;;;5.60;99.90;;;;;;5051334;28;20895;-64
2020/12/09 05:16:02;;;;;;;36.50;22.90;;;5.60;99.90;;;;;;5054380;28;20693;-64
2020/12/09 05:18:40;;;;;;;37.67;23.40;;;5.60;99.90;;;;;;5054388;28;20230;-64
2020/12/09 05:21:14;;;;;;;33.30;22.40;;;5.60;99.90;;;;;;5054012;28;20209;-63
2020/12/09 05:23:44;;;;;;;32.47;22.53;;;5.60;99.90;;;;;;5054287;28;20229;-64
2020/12/09 05:26:17;;;;;;;31.97;22.03;;;5.60;99.90;;;;;;5054244;28;20662;-63
2020/12/09 05:28:43;;;;;;;30.80;21.27;;;5.60;99.90;;;;;;5054015;28;20275;-64
2020/12/09 05:31:18;;;;;;;31.53;21.53;;;5.50;99.90;;;;;;5054606;28;20205;-63
2020/12/09 05:33:45;;;;;;;32.13;21.47;;;5.50;99.90;;;;;;5054193;28;20291;-64
2020/12/09 05:36:11;;;;;;;29.67;21.20;;;5.50;99.90;;;;;;5054996;28;20212;-63
2020/12/09 05:38:37;;;;;;;31.27;22.40;;;5.60;99.90;;;;;;5053968;28;20225;-63
2020/12/09 05:41:10;;;;;;;32.70;22.57;;;5.50;99.90;;;;;;5054612;28;20205;-63
2020/12/09 05:43:42;;;;;;;31.67;21.93;;;5.60;99.90;;;;;;5054489;28;20364;-63
2020/12/09 05:46:09;;;;;;;30.33;22.03;;;5.60;99.90;;;;;;5054849;28;20206;-63
2020/12/09 05:48:35;;;;;;;30.40;21.60;;;5.60;99.90;;;;;;5053834;28;20261;-64
2020/12/09 05:51:01;;;;;;;30.87;21.77;;;5.60;99.90;;;;;;5054562;28;20206;-64
2020/12/09 05:53:29;;;;;;;32.13;23.17;;;5.60;99.90;;;;;;5053713;28;20202;-64
2020/12/09 05:56:11;;;;;;;29.90;21.67;;;5.60;99.90;;;;;;5053784;28;20282;-64
2020/12/09 05:58:40;;;;;;;33.17;22.90;;;5.60;99.90;;;;;;5053690;28;20759;-64
2020/12/09 06:01:11;;;;;;;34.73;21.97;;;5.60;99.90;;;;;;5054580;28;20274;-64
2020/12/09 06:03:39;;;;;;;33.30;21.80;;;5.60;99.90;;;;;;5053502;28;20221;-64
2020/12/09 06:06:13;;;;;;;34.17;25.83;;;5.50;99.90;;;;;;5053950;28;20415;-64
2020/12/09 06:08:42;;;;;;;33.67;23.47;;;5.50;99.90;;;;;;5053229;28;20225;-64
2020/12/09 06:11:09;;;;;;;36.80;22.93;;;5.50;99.90;;;;;;5054071;28;20220;-64
2020/12/09 06:13:37;;;;;;;35.13;24.17;;;5.50;99.90;;;;;;5053565;28;20293;-64
2020/12/09 06:16:05;;;;;;;36.63;25.47;;;5.50;99.90;;;;;;5054219;28;20216;-64
2020/12/09 06:18:33;;;;;;;34.53;24.20;;;5.60;99.90;;;;;;5053463;28;20221;-64
2020/12/09 06:21:00;;;;;;;38.20;25.70;;;5.60;99.90;;;;;;5053702;28;20210;-64
2020/12/09 06:23:27;;;;;;;38.83;25.33;;;5.60;99.90;;;;;;5052816;28;20592;-63
2020/12/09 06:25:55;;;;;;;34.63;25.17;;;5.60;99.90;;;;;;5052016;28;20217;-64
2020/12/09 06:28:23;;;;;;;35.77;23.57;;;5.70;99.90;;;;;;5052894;28;20261;-63
2020/12/09 06:30:51;;;;;;;36.43;23.90;;;5.70;99.90;;;;;;5052790;28;20202;-64
2020/12/09 06:33:36;;;;;;;35.53;24.73;;;5.70;99.90;;;;;;5053051;28;20202;-64
2020/12/09 06:36:23;;;;;;;35.03;24.37;;;5.70;99.90;;;;;;5058898;28;20296;-63
2020/12/09 06:39:16;;;;;;;44.53;28.10;;;5.70;99.90;;;;;;5060820;28;20225;-64
2020/12/09 06:42:06;;;;;;;34.73;24.10;;;5.70;99.90;;;;;;5063027;28;20234;-64
2020/12/09 06:44:45;;;;;;;47.13;30.17;;;5.70;99.90;;;;;;5060770;28;20209;-64
2020/12/09 06:47:12;;;;;;;38.00;25.67;;;5.80;99.90;;;;;;5061129;28;20201;-64
2020/12/09 06:49:41;;;;;;;37.83;24.47;;;5.80;99.90;;;;;;5060666;28;20225;-64
2020/12/09 06:52:27;;;;;;;39.30;25.63;;;5.70;99.90;;;;;;5060711;28;20206;-64
2020/12/09 06:54:54;;;;;;;38.97;24.90;;;5.70;99.90;;;;;;5065383;28;20210;-63
2020/12/09 06:57:24;;;;;;;40.17;25.83;;;5.70;99.90;;;;;;5063324;28;20723;-64
2020/12/09 06:59:52;;;;;;;37.60;25.23;;;5.70;99.90;;;;;;5057823;28;20209;-64
2020/12/09 07:02:27;;;;;;;43.63;29.73;;;5.70;99.90;;;;;;5053698;28;20221;-64
2020/12/09 07:05:12;;;;;;;40.10;26.60;;;5.70;99.90;;;;;;5052659;28;20213;-64
2020/12/09 07:07:41;;;;;;;41.33;25.93;;;5.80;99.90;;;;;;5052210;28;20215;-64
2020/12/09 07:10:19;;;;;;;35.47;24.80;;;5.80;99.90;;;;;;5052253;28;20684;-64
2020/12/09 07:12:46;;;;;;;38.43;25.87;;;5.80;99.90;;;;;;5052162;28;20201;-64
2020/12/09 07:15:12;;;;;;;36.07;25.13;;;5.80;99.90;;;;;;5052350;28;20209;-64
2020/12/09 07:17:39;;;;;;;40.43;25.00;;;5.80;99.90;;;;;;5052380;28;20209;-63
2020/12/09 07:20:06;;;;;;;37.33;25.60;;;5.90;99.90;;;;;;5052590;28;20271;-64
2020/12/09 07:22:33;;;;;;;40.03;27.23;;;5.90;99.90;;;;;;5052496;28;20232;-64
2020/12/09 07:24:59;;;;;;;42.63;26.87;;;5.90;99.90;;;;;;5052048;28;20673;-64
2020/12/09 07:27:27;;;;;;;38.63;26.20;;;5.90;99.90;;;;;;5052274;28;20213;-64
2020/12/09 07:29:56;;;;;;;40.03;27.53;;;5.90;99.90;;;;;;5053419;28;20296;-63
2020/12/09 07:32:24;;;;;;;39.07;27.20;;;5.90;99.90;;;;;;5056364;28;20201;-64
2020/12/09 07:34:52;;;;;;;42.30;27.50;;;5.90;99.90;;;;;;5053734;28;20205;-63
2020/12/09 07:37:20;;;;;;;38.00;25.77;;;5.90;99.90;;;;;;5051481;28;20292;-63
2020/12/09 07:39:48;;;;;;;37.53;25.63;;;5.90;99.90;;;;;;5051454;28;20267;-63
2020/12/09 07:42:16;;;;;;;38.67;26.57;;;6.00;99.90;;;;;;5052011;28;20643;-65
2020/12/09 07:44:43;;;;;;;40.67;24.77;;;6.00;99.90;;;;;;5052162;28;20210;-64
2020/12/09 07:47:10;;;;;;;43.73;27.73;;;6.00;99.90;;;;;;5054193;28;20209;-64
2020/12/09 07:49:47;;;;;;;42.43;27.03;;;6.00;99.90;;;;;;5052906;28;20237;-64
2020/12/09 07:52:23;;;;;;;37.80;26.13;;;6.10;99.90;;;;;;5053485;28;20215;-64
2020/12/09 07:54:56;;;;;;;37.50;25.07;;;6.10;99.90;;;;;;5055950;28;20209;-63
2020/12/09 07:57:24;;;;;;;35.67;24.20;;;6.10;99.90;;;;;;5054832;28;20209;-64
2020/12/09 07:59:54;;;;;;;39.70;25.93;;;6.10;99.90;;;;;;5058444;28;20681;-64
2020/12/09 08:02:22;;;;;;;42.03;27.33;;;6.20;99.90;;;;;;5053485;28;20229;-63
2020/12/09 08:05:04;;;;;;;39.13;26.87;;;6.20;99.90;;;;;;5055716;28;20424;-64
2020/12/09 08:07:31;;;;;;;51.53;34.30;;;6.20;99.90;;;;;;5055881;28;20205;-64
2020/12/09 08:10:08;;;;;;;42.87;27.73;;;6.20;99.90;;;;;;5056375;28;20205;-64
2020/12/09 08:12:36;;;;;;;40.23;26.33;;;6.20;99.90;;;;;;5056211;28;20239;-65
2020/12/09 08:15:04;;;;;;;43.00;26.63;;;6.20;99.90;;;;;;5055914;28;20206;-65
2020/12/09 08:17:30;;;;;;;38.27;26.20;;;6.20;99.90;;;;;;5055146;28;20209;-64
2020/12/09 08:20:01;;;;;;;42.83;26.23;;;6.20;99.90;;;;;;5053140;28;20221;-65
2020/12/09 08:22:27;;;;;;;35.03;24.87;;;6.20;99.90;;;;;;5055094;28;20238;-64
2020/12/09 08:25:05;;;;;;;40.60;26.53;;;6.20;99.90;;;;;;5056311;28;20262;-64
2020/12/09 08:27:42;;;;;;;38.37;25.07;;;6.20;99.90;;;;;;5054839;28;20213;-61
2020/12/09 08:30:16;;;;;;;36.70;25.27;;;6.20;99.90;;;;;;5060288;28;20209;-63
2020/12/09 08:33:04;;;;;;;39.53;24.23;;;5.90;99.90;;;;;;5057031;28;20561;-62
2020/12/09 08:35:41;;;;;;;38.00;25.30;;;6.00;99.90;;;;;;5057457;28;20205;-62
2020/12/09 08:38:07;;;;;;;39.07;25.17;;;6.00;99.90;;;;;;5052728;28;20229;-64
2020/12/09 08:40:34;;;;;;;37.40;25.23;;;6.30;99.90;;;;;;5053787;28;20631;-63
2020/12/09 08:43:00;;;;;;;35.07;24.60;;;6.40;99.90;;;;;;5052710;28;20222;-62
2020/12/09 08:45:27;;;;;;;49.10;31.53;;;6.50;99.90;;;;;;5053430;28;20618;-63
2020/12/09 08:47:54;;;;;;;37.30;24.93;;;6.50;99.90;;;;;;5052718;28;20298;-64
2020/12/09 08:50:21;;;;;;;36.63;24.97;;;6.50;99.90;;;;;;5056010;28;20216;-63
2020/12/09 08:52:47;;;;;;;35.27;24.53;;;6.60;99.90;;;;;;5056570;28;20205;-63
2020/12/09 08:55:14;;;;;;;38.13;24.93;;;6.70;99.90;;;;;;5056396;28;20209;-64
2020/12/09 09:00:18;;;;;;;33.50;24.10;;;6.60;99.90;;;;;;5129131;27;20566;-59
2020/12/09 09:02:46;;;;;;;36.50;26.60;;;6.60;99.90;;;;;;5129217;27;20666;-58
2020/12/09 09:05:12;;;;;;;34.30;25.10;;;6.60;99.90;;;;;;5128721;28;20298;-58
2020/12/09 09:07:38;;;;;;;41.90;29.10;;;6.60;99.90;;;;;;5129191;28;20210;-59
2020/12/09 09:10:05;;;;;;;48.63;31.20;;;6.50;99.90;;;;;;5129139;28;20249;-59
2020/12/09 09:12:31;;;;;;;37.07;26.27;;;6.40;99.90;;;;;;5129460;28;20218;-59
2020/12/09 09:14:57;;;;;;;39.47;25.23;;;6.20;99.90;;;;;;5129752;28;20206;-59
2020/12/09 09:17:24;;;;;;;40.13;25.30;;;6.10;99.90;;;;;;5129275;28;20256;-59
2020/12/09 09:19:50;;;;;;;37.80;24.60;;;6.00;99.90;;;;;;5128169;28;20721;-59
2020/12/09 09:22:16;;;;;;;39.13;25.77;;;5.90;99.90;;;;;;5128755;27;20210;-59
2020/12/09 09:24:43;;;;;;;42.27;24.77;;;5.70;99.90;;;;;;5128420;27;20210;-59
2020/12/09 09:27:10;;;;;;;40.63;26.17;;;5.50;99.90;;;;;;5128731;27;20697;-59
2020/12/09 09:29:37;;;;;;;41.53;27.00;;;5.40;99.90;;;;;;5128252;27;20709;-59
2020/12/09 09:32:04;;;;;;;41.70;26.67;;;5.30;99.90;;;;;;5128625;28;20210;-59
2020/12/09 09:34:31;;;;;;;40.47;26.40;;;5.40;99.90;;;;;;5128121;28;20203;-59
2020/12/09 09:36:57;;;;;;;41.43;26.60;;;5.50;99.90;;;;;;5128352;28;20714;-59
2020/12/09 09:39:23;;;;;;;41.33;26.93;;;5.40;99.90;;;;;;5128146;27;20238;-59
2020/12/09 09:41:49;;;;;;;49.07;31.07;;;5.40;99.90;;;;;;5128495;28;20211;-59
2020/12/09 09:44:15;;;;;;;39.87;26.60;;;5.40;99.90;;;;;;5128244;28;20207;-59
2020/12/09 09:46:42;;;;;;;42.47;28.13;;;5.40;99.90;;;;;;5128503;28;20218;-59
2020/12/09 09:49:08;;;;;;;42.37;27.87;;;5.40;99.90;;;;;;5127592;27;20226;-60
2020/12/09 09:51:35;;;;;;;43.27;28.57;;;5.40;99.90;;;;;;5128386;27;20601;-59
2020/12/09 09:54:01;;;;;;;44.90;29.77;;;5.50;99.90;;;;;;5127897;28;20709;-59
2020/12/09 09:56:27;;;;;;;43.83;28.30;;;5.40;99.90;;;;;;5128788;27;20487;-59
2020/12/09 09:58:53;;;;;;;42.93;29.30;;;5.20;99.90;;;;;;5128447;28;20230;-57
2020/12/09 10:01:19;;;;;;;65.97;38.57;;;5.50;99.90;;;;;;5128795;27;20210;-59
2020/12/09 10:03:46;;;;;;;50.47;32.77;;;5.80;99.90;;;;;;5128226;27;20203;-56
2020/12/09 10:06:12;;;;;;;44.20;28.80;;;6.10;99.90;;;;;;5128366;27;20698;-56
2020/12/09 10:08:39;;;;;;;43.17;27.67;;;6.30;99.90;;;;;;5127821;28;20219;-57
2020/12/09 10:11:05;;;;;;;39.27;27.10;;;6.40;99.90;;;;;;5117695;28;20561;-56
2020/12/09 10:13:32;;;;;;;41.20;28.50;;;6.60;99.90;;;;;;5113910;28;20211;-56
2020/12/09 10:15:58;;;;;;;41.40;26.57;;;6.60;99.90;;;;;;5114052;28;20203;-56
2020/12/09 10:18:24;;;;;;;40.00;26.17;;;6.70;99.90;;;;;;5113835;28;20576;-57
2020/12/09 10:20:51;;;;;;;38.93;26.27;;;6.70;99.90;;;;;;5114092;28;20207;-59
2020/12/09 10:23:17;;;;;;;37.10;26.50;;;6.70;99.90;;;;;;5114500;28;20208;-57
2020/12/09 10:25:45;;;;;;;38.70;26.83;;;6.80;99.90;;;;;;5114465;28;20203;-57
2020/12/09 10:28:11;;;;;;;36.47;25.80;;;6.90;99.90;;;;;;5114280;28;20234;-57
2020/12/09 10:30:38;;;;;;;37.57;25.47;;;6.80;99.90;;;;;;5114050;28;20667;-57
2020/12/09 10:33:04;;;;;;;38.47;24.80;;;6.90;99.90;;;;;;5114245;28;20318;-57
2020/12/09 10:35:30;;;;;;;36.63;24.20;;;6.90;99.90;;;;;;5113808;28;20207;-57
2020/12/09 10:37:57;;;;;;;35.00;25.07;;;6.90;99.90;;;;;;5113400;28;20671;-57
2020/12/09 10:40:23;;;;;;;35.17;24.33;;;6.90;99.90;;;;;;5113951;28;20306;-57
2020/12/09 10:42:50;;;;;;;36.70;25.23;;;6.90;99.90;;;;;;5113706;28;20207;-58
2020/12/09 10:45:16;;;;;;;35.00;24.23;;;7.00;99.90;;;;;;5113546;28;20207;-58
2020/12/09 10:47:42;;;;;;;35.40;24.07;;;7.00;99.90;;;;;;5113483;28;20297;-58
2020/12/09 10:50:09;;;;;;;34.10;24.27;;;7.00;99.90;;;;;;5113560;28;20200;-59
2020/12/09 10:52:35;;;;;;;37.73;25.30;;;7.00;99.90;;;;;;5113639;28;20233;-58
2020/12/09 10:55:03;;;;;;;33.77;24.00;;;7.00;99.90;;;;;;5113192;28;20234;-57
2020/12/09 10:57:29;;;;;;;35.83;24.00;;;7.10;99.90;;;;;;5113246;28;20280;-58
2020/12/09 10:59:56;;;;;;;32.67;24.17;;;7.00;99.90;;;;;;5112653;28;20231;-58
2020/12/09 11:02:22;;;;;;;34.03;24.43;;;7.00;99.90;;;;;;5113428;28;20211;-58
2020/12/09 11:04:48;;;;;;;32.60;23.83;;;7.00;99.90;;;;;;5113011;28;20576;-58
2020/12/09 11:07:16;;;;;;;34.50;23.97;;;7.00;99.90;;;;;;5113368;28;20208;-58
2020/12/09 11:09:42;;;;;;;31.30;23.30;;;7.00;99.90;;;;;;5112712;28;20706;-57
2020/12/09 11:12:09;;;;;;;39.37;28.37;;;6.90;99.90;;;;;;5113228;28;20286;-58
2020/12/09 11:14:36;;;;;;;36.50;24.10;;;7.00;99.90;;;;;;5112869;28;20618;-58
2020/12/09 11:17:04;;;;;;;33.47;24.03;;;7.00;99.90;;;;;;5114442;28;20199;-58
2020/12/09 11:19:31;;;;;;;31.33;23.23;;;7.00;99.90;;;;;;5113548;28;20250;-58
2020/12/09 11:21:57;;;;;;;33.07;23.17;;;6.90;99.90;;;;;;5112402;28;20214;-58
2020/12/09 11:24:23;;;;;;;33.70;24.53;;;6.80;99.90;;;;;;5112636;28;20207;-58
2020/12/09 11:26:49;;;;;;;33.90;22.73;;;6.80;99.90;;;;;;5112667;28;20681;-58
2020/12/09 11:29:16;;;;;;;34.10;23.77;;;6.90;99.90;;;;;;5112138;28;20505;-59
2020/12/09 11:31:42;;;;;;;31.93;22.07;;;6.90;99.90;;;;;;5113162;28;20210;-62
2020/12/09 11:34:09;;;;;;;36.40;24.53;;;6.90;99.90;;;;;;5112808;28;20203;-57
2020/12/09 11:36:36;;;;;;;34.57;24.67;;;6.90;99.90;;;;;;5113010;28;20203;-57
2020/12/09 11:39:03;;;;;;;35.43;24.40;;;7.00;99.90;;;;;;5112519;28;20223;-58
2020/12/09 11:41:31;;;;;;;38.50;25.80;;;7.00;99.90;;;;;;5112536;28;20204;-58
2020/12/09 11:43:58;;;;;;;38.50;29.60;;;7.00;99.90;;;;;;5107003;28;20471;-62
2020/12/09 11:46:25;;;;;;;37.97;28.20;;;6.90;99.90;;;;;;5112650;28;20291;-61
2020/12/09 11:48:51;;;;;;;37.10;27.47;;;6.90;99.90;;;;;;5111969;28;20230;-61
2020/12/09 11:51:18;;;;;;;41.13;28.50;;;7.00;99.90;;;;;;5112294;28;20199;-60
2020/12/09 11:53:44;;;;;;;38.17;26.10;;;7.10;99.90;;;;;;5111460;28;20214;-59
2020/12/09 11:56:11;;;;;;;33.77;23.97;;;7.20;99.90;;;;;;5112185;28;20586;-60
2020/12/09 11:58:38;;;;;;;37.13;24.83;;;7.20;99.90;;;;;;5111750;28;20580;-65
2020/12/09 12:01:06;;;;;;;35.20;23.20;;;7.20;99.90;;;;;;5112243;28;20210;-62
2020/12/09 12:03:32;;;;;;;33.40;22.90;;;7.20;99.90;;;;;;5111666;28;20234;-62
2020/12/09 12:05:58;;;;;;;34.13;24.07;;;7.20;99.90;;;;;;5111942;28;20207;-60
2020/12/09 12:08:26;;;;;;;33.97;23.93;;;7.20;99.90;;;;;;5110855;28;20227;-62
2020/12/09 12:10:52;;;;;;;33.30;24.10;;;7.20;99.90;;;;;;5111679;28;20203;-61
2020/12/09 12:13:18;;;;;;;34.17;24.43;;;7.20;99.90;;;;;;5111885;28;20207;-61
2020/12/09 12:15:44;;;;;;;33.50;23.13;;;7.20;99.90;;;;;;5111374;28;20240;-61
2020/12/09 12:18:10;;;;;;;33.50;23.20;;;7.20;99.90;;;;;;5111354;28;20228;-59
2020/12/09 12:20:36;;;;;;;37.37;25.10;;;7.30;99.90;;;;;;5107846;28;20677;-62
2020/12/09 12:23:03;;;;;;;38.13;25.10;;;7.30;99.90;;;;;;5111271;28;20218;-61
2020/12/09 12:25:30;;;;;;;35.43;24.87;;;7.30;99.90;;;;;;5111080;28;20206;-61
2020/12/09 12:27:56;;;;;;;38.43;26.90;;;7.20;99.90;;;;;;5110939;28;20679;-61
2020/12/09 12:30:22;;;;;;;39.33;26.03;;;7.00;99.90;;;;;;5111434;28;20210;-61
2020/12/09 12:32:49;;;;;;;36.77;24.30;;;6.90;99.90;;;;;;5111269;28;20690;-61
2020/12/09 12:35:15;;;;;;;33.20;23.90;;;6.80;99.90;;;;;;5111250;28;20214;-61
2020/12/09 12:37:42;;;;;;;34.73;23.13;;;6.60;99.90;;;;;;5111366;28;20223;-60
2020/12/09 12:40:08;;;;;;;34.83;23.50;;;6.40;99.90;;;;;;5111689;28;20227;-60
2020/12/09 12:42:35;;;;;;;39.07;23.70;;;6.30;99.90;;;;;;5111700;28;20211;-60